createdAt,value
2018-01-04T12:10:24.458Z,8.60
2018-01-04T12:12:50.785Z,8.50
2018-01-04T12:15:17.182Z,8.60
2018-01-04T12:17:44.374Z,8.70
2018-01-04T12:20:10.682Z,8.60
2018-01-04T12:22:36.974Z,8.60
2018-01-04T12:25:05.334Z,8.70
2018-01-04T12:27:31.701Z,8.70
2018-01-04T12:29:58.778Z,8.80
2018-01-04T12:32:25.093Z,8.80
2018-01-04T12:34:51.452Z,8.80
2018-01-04T12:37:17.721Z,8.80
2018-01-04T12:39:44.140Z,8.80
2018-01-04T12:42:10.453Z,8.80
2018-01-04T12:44:36.805Z,8.80
2018-01-04T12:47:03.103Z,8.80
2018-01-04T12:49:29.409Z,8.80
2018-01-04T12:51:55.930Z,8.90
2018-01-04T12:54:23.020Z,9.10
2018-01-04T12:56:49.332Z,9.00
2018-01-04T12:59:15.650Z,9.00
2018-01-04T13:01:41.997Z,9.10
2018-01-04T13:04:08.362Z,9.10
2018-01-04T13:06:35.506Z,9.20
2018-01-04T13:09:01.845Z,9.10
2018-01-04T13:11:28.157Z,9.20
2018-01-04T13:13:54.526Z,9.30
2018-01-04T13:16:21.562Z,9.20
2018-01-04T13:18:47.896Z,9.20
2018-01-04T13:21:14.178Z,9.20
2018-01-04T13:23:40.596Z,9.10
2018-01-04T13:26:07.034Z,9.10
2018-01-04T13:28:33.357Z,9.10
2018-01-04T13:30:59.683Z,9.10
2018-01-04T13:33:26.016Z,9.10
2018-01-04T13:35:53.535Z,9.10
2018-01-04T13:38:19.889Z,9.10
2018-01-04T13:40:46.278Z,9.10
2018-01-04T13:43:12.554Z,9.10
2018-01-04T13:45:39.633Z,9.10
2018-01-04T13:48:06.089Z,9.00
2018-01-04T13:53:25.934Z,9.10
2018-01-04T13:55:52.966Z,9.20
2018-01-04T13:58:19.241Z,9.20
2018-01-04T14:00:45.526Z,9.20
2018-01-04T14:03:11.781Z,9.20
2018-01-04T14:05:38.140Z,9.20
2018-01-04T14:08:04.522Z,9.30
2018-01-04T14:10:31.665Z,9.40
2018-01-04T14:12:58.737Z,9.50
2018-01-04T14:15:25.030Z,9.50
2018-01-04T14:17:51.423Z,9.60
2018-01-04T14:20:17.722Z,10.20
2018-01-04T14:22:44.604Z,10.60
2018-01-04T14:25:28.194Z,11.20
2018-01-04T14:27:55.222Z,11.60
2018-01-04T14:30:21.485Z,11.60
2018-01-04T14:32:48.718Z,11.70
2018-01-04T14:35:20.117Z,11.70
2018-01-04T14:37:46.450Z,11.70
2018-01-04T14:40:12.741Z,11.70
2018-01-04T14:42:39.773Z,11.70
2018-01-04T14:45:06.804Z,11.70
2018-01-04T14:47:33.081Z,11.70
2018-01-04T14:49:59.774Z,11.70
2018-01-04T14:52:26.208Z,11.80
2018-01-04T14:54:52.541Z,11.80
2018-01-04T14:57:19.386Z,11.80
2018-01-04T14:59:45.754Z,11.80
2018-01-04T15:02:12.027Z,11.90
2018-01-04T15:07:32.010Z,12.00
2018-01-04T15:09:58.347Z,12.00
2018-01-04T15:12:25.157Z,12.00
2018-01-04T15:14:51.456Z,12.10
2018-01-04T15:17:17.836Z,12.20
2018-01-04T15:19:44.114Z,12.20
2018-01-04T15:22:10.510Z,12.20
2018-01-04T15:24:36.789Z,12.20
2018-01-04T15:27:03.819Z,12.10
2018-01-04T15:29:30.185Z,12.10
2018-01-04T15:31:56.490Z,12.10
2018-01-04T15:34:23.501Z,12.10
2018-01-04T15:36:49.825Z,12.10
2018-01-04T15:39:16.081Z,12.10
2018-01-04T15:41:42.370Z,12.20
2018-01-04T15:44:08.957Z,12.20
2018-01-04T15:46:56.334Z,12.20
2018-01-04T15:49:28.744Z,12.10
2018-01-04T15:51:55.064Z,12.20
2018-01-04T15:54:23.682Z,12.10
2018-01-04T15:56:50.829Z,12.10
2018-01-04T15:59:17.921Z,12.10
2018-01-04T16:01:44.300Z,12.00
2018-01-04T16:04:10.677Z,12.00
2018-01-04T16:06:36.991Z,12.00
2018-01-04T16:09:03.595Z,12.00
2018-01-04T16:11:29.928Z,12.10
2018-01-04T16:13:56.209Z,12.00
2018-01-04T16:16:22.567Z,12.00
2018-01-04T16:18:48.904Z,12.10
2018-01-04T16:21:15.308Z,12.20
2018-01-04T16:23:41.660Z,12.20
2018-01-04T16:26:07.962Z,12.20
2018-01-04T16:28:34.302Z,12.10
2018-01-04T16:31:00.577Z,12.10
2018-01-04T16:33:27.242Z,12.10
2018-01-04T16:35:56.317Z,12.10
2018-01-04T16:38:23.343Z,12.10
2018-01-04T16:40:49.612Z,12.00
2018-01-04T16:43:15.969Z,12.10
2018-01-04T16:45:42.487Z,12.10
2018-01-04T16:48:08.837Z,12.10
2018-01-04T16:50:35.183Z,12.10
2018-01-04T16:53:01.480Z,12.10
2018-01-04T16:55:27.856Z,12.10
2018-01-04T16:57:54.214Z,12.10
2018-01-04T17:00:21.384Z,12.20
2018-01-04T17:02:47.794Z,12.10
2018-01-04T17:05:14.874Z,12.00
2018-01-04T17:07:41.237Z,12.00
2018-01-04T17:10:07.573Z,12.00
2018-01-04T17:12:33.882Z,12.00
2018-01-04T17:15:00.246Z,11.90
2018-01-04T17:17:26.525Z,11.80
2018-01-04T17:19:52.914Z,11.80
2018-01-04T17:22:19.205Z,11.80
2018-01-04T17:24:45.509Z,11.80
2018-01-04T17:27:12.356Z,11.90
2018-01-04T17:29:38.720Z,11.80
2018-01-04T17:32:05.578Z,11.70
2018-01-04T17:34:32.163Z,11.70
2018-01-04T17:36:58.498Z,11.70
2018-01-04T17:39:24.793Z,11.70
2018-01-04T17:41:51.829Z,11.70
2018-01-04T17:44:19.807Z,11.70
2018-01-04T17:46:46.097Z,11.70
2018-01-04T17:49:12.437Z,11.80
2018-01-04T17:51:39.034Z,11.70
2018-01-04T17:54:05.470Z,11.70
2018-01-04T17:56:31.762Z,11.60
2018-01-04T17:58:58.093Z,11.60
2018-01-04T18:01:25.167Z,11.50
2018-01-04T18:03:51.498Z,11.50
2018-01-04T18:06:17.802Z,11.40
2018-01-04T18:08:44.826Z,11.30
2018-01-04T18:11:11.165Z,11.30
2018-01-04T18:13:37.491Z,11.20
2018-01-04T18:16:03.888Z,11.10
2018-01-04T18:18:30.223Z,11.10
2018-01-04T18:20:56.498Z,11.10
2018-01-04T18:26:16.130Z,11.10
2018-01-04T18:28:42.421Z,11.20
2018-01-04T18:31:08.750Z,11.20
2018-01-04T18:33:36.129Z,11.30
2018-01-04T18:36:02.506Z,11.30
2018-01-04T18:38:28.827Z,11.30
2018-01-04T18:40:55.556Z,11.30
2018-01-04T18:43:23.008Z,11.30
2018-01-04T18:45:49.325Z,11.20
2018-01-04T18:48:15.648Z,11.20
2018-01-04T18:50:42.286Z,11.20
2018-01-04T18:53:09.666Z,11.30
2018-01-04T18:55:35.973Z,11.30
2018-01-04T18:58:03.046Z,11.30
2018-01-04T19:00:29.474Z,11.30
2018-01-04T19:02:55.882Z,11.30
2018-01-04T19:05:22.589Z,11.30
2018-01-04T19:07:49.349Z,11.40
2018-01-04T19:10:16.528Z,11.30
2018-01-04T19:12:42.857Z,11.30
2018-01-04T19:15:09.186Z,11.20
2018-01-04T19:17:35.482Z,11.20
2018-01-04T19:20:02.411Z,11.10
2018-01-04T19:22:28.706Z,11.10
2018-01-04T19:24:55.022Z,11.10
2018-01-04T19:27:21.346Z,11.10
2018-01-04T19:29:47.753Z,11.00
2018-01-04T19:32:14.085Z,11.10
2018-01-04T19:34:40.396Z,11.10
2018-01-04T19:37:13.002Z,11.10
2018-01-04T19:39:39.362Z,11.00
2018-01-04T19:42:05.737Z,11.10
2018-01-04T19:44:32.014Z,11.00
2018-01-04T19:46:58.337Z,11.00
2018-01-04T19:49:25.347Z,11.00
2018-01-04T19:51:55.538Z,11.00
2018-01-04T19:54:22.722Z,11.00
2018-01-04T19:56:49.035Z,11.00
2018-01-04T19:59:15.381Z,10.90
2018-01-04T20:01:41.752Z,10.90
2018-01-04T20:04:08.234Z,10.90
2018-01-04T20:06:37.705Z,10.80
2018-01-04T20:09:04.078Z,10.70
2018-01-04T20:11:30.409Z,10.70
2018-01-04T20:13:56.870Z,10.60
2018-01-04T20:16:23.971Z,10.60
2018-01-04T20:18:50.320Z,10.50
2018-01-04T20:21:16.626Z,10.50
2018-01-04T20:23:44.715Z,10.50
2018-01-04T20:26:11.100Z,10.40
2018-01-04T20:28:37.425Z,10.50
2018-01-04T20:31:03.726Z,10.50
2018-01-04T20:33:30.018Z,10.40
2018-01-04T20:35:56.306Z,10.50
2018-01-04T20:38:22.614Z,10.40
2018-01-04T20:40:48.941Z,10.40
2018-01-04T20:43:15.249Z,10.40
2018-01-04T20:45:41.952Z,10.40
2018-01-04T20:48:08.238Z,10.40
2018-01-04T20:50:34.585Z,10.30
2018-01-04T20:53:01.849Z,10.30
2018-01-04T20:55:28.174Z,10.30
2018-01-04T20:57:55.238Z,10.30
2018-01-04T21:00:22.271Z,10.30
2018-01-04T21:02:49.322Z,10.30
2018-01-04T21:05:15.654Z,10.20
2018-01-04T21:07:42.169Z,10.30
2018-01-04T21:10:09.246Z,10.20
2018-01-04T21:12:36.414Z,10.20
2018-01-04T21:15:03.071Z,10.20
2018-01-04T21:17:29.455Z,10.20
2018-01-04T21:19:56.651Z,10.10
2018-01-04T21:22:23.056Z,10.10
2018-01-04T21:24:49.477Z,10.10
2018-01-04T21:27:16.536Z,10.00
2018-01-04T21:29:49.814Z,10.00
2018-01-04T21:32:16.894Z,10.00
2018-01-04T21:34:43.266Z,10.00
2018-01-04T21:37:09.847Z,10.00
2018-01-04T21:39:36.139Z,9.90
2018-01-04T21:42:03.245Z,9.90
2018-01-04T21:44:29.637Z,9.90
2018-01-04T21:46:57.626Z,9.80
2018-01-04T21:49:24.016Z,9.80
2018-01-04T21:51:50.338Z,9.80
2018-01-04T21:54:16.680Z,9.80
2018-01-04T21:56:43.837Z,9.80
2018-01-04T21:59:10.962Z,9.80
2018-01-04T22:01:37.289Z,9.70
2018-01-04T22:04:03.630Z,9.70
2018-01-04T22:06:30.036Z,9.60
2018-01-04T22:08:56.443Z,9.60
2018-01-04T22:11:22.957Z,9.60
2018-01-04T22:13:51.021Z,9.60
2018-01-04T22:16:18.149Z,9.50
2018-01-04T22:18:44.497Z,9.50
2018-01-04T22:21:11.938Z,9.50
2018-01-04T22:23:38.258Z,9.40
2018-01-04T22:26:04.609Z,9.40
2018-01-04T22:28:30.906Z,9.40
2018-01-04T22:30:57.221Z,9.40
2018-01-04T22:33:23.538Z,9.30
2018-01-04T22:35:49.885Z,9.30
2018-01-04T22:38:22.316Z,9.20
2018-01-04T22:40:49.419Z,9.20
2018-01-04T22:43:15.827Z,9.20
2018-01-04T22:45:47.243Z,9.20
2018-01-04T22:48:14.333Z,9.20
2018-01-04T22:50:40.667Z,9.10
2018-01-04T22:53:08.120Z,9.20
2018-01-04T22:55:34.562Z,9.20
2018-01-04T22:58:00.948Z,9.10
2018-01-04T23:00:28.026Z,9.10
2018-01-04T23:02:54.418Z,9.10
2018-01-04T23:05:20.747Z,9.10
2018-01-04T23:07:47.878Z,9.00
2018-01-04T23:10:15.730Z,9.00
2018-01-04T23:12:42.077Z,9.00
2018-01-04T23:15:08.431Z,9.10
2018-01-04T23:17:35.511Z,9.00
2018-01-04T23:20:02.400Z,8.90
2018-01-04T23:22:28.793Z,9.00
2018-01-04T23:24:55.271Z,8.90
2018-01-04T23:27:21.613Z,8.90
2018-01-04T23:29:48.052Z,8.90
2018-01-04T23:32:15.171Z,8.90
2018-01-04T23:34:41.479Z,8.90
2018-01-04T23:37:07.826Z,8.80
2018-01-04T23:39:34.230Z,8.70
2018-01-04T23:42:00.589Z,8.70
2018-01-04T23:44:26.945Z,8.70
2018-01-04T23:46:57.266Z,8.70
2018-01-04T23:49:23.621Z,8.70
2018-01-04T23:51:49.983Z,8.70
2018-01-04T23:54:17.380Z,8.70
2018-01-04T23:56:43.716Z,8.70
2018-01-04T23:59:10.857Z,8.60
